Archival Weather

Chicago O'Hare International

Chicago, Illinois (KORD)

Report from: Wednesday, July 19, 2023 9:51 AM CDT
Current time: Saturday, July 13, 2024 7:29 PM CDT

Current weather – Weather history – Daily summaries
Weather forecast

Temperature25.0°C (77.0°F)
Dew point12.8°C (55.0°F)
Winds 7 kts (3.6 m/s, 8.1 mph) Southeast (140°)
Visibility10 mi. (16.1 km)
Clouds Few clouds 10,000 ft. (3,048 m)
Altimeter30.07 in.Hg (1018 mB)
Relative humidity47 %
Density altitude1,219 ft. (372 m)
Sea-level pressure101.8 kPa (1018 mB, 30.05 in.Hg)
Remarks Automated weather observing station with precipitation discriminator
Pressure rising more slowly
Flight conditions Visual Meteorological Conditions
Raw dataKORD 191451Z 14007KT 10SM FEW100 25/13 A3007 RMK AO2 SLP176 T02500128 51006
An error has occurred. This application may no longer respond until reloaded. Reload 🗙